• Join FlightAware (Why Join?)
  • Login
  • US Flag 
10:51PM EDT


 

Airport Tracker/Info


-or-


 

Live Flight TrackerFlight Track Log ✈ AAL117 ✈ 15-Jun-2013 ✈ KJFK - KLAX

Flight Track Log - Related Links

Times and Time Zones

All times are in EDT time to prevent confusion due to time zone crossing. See the AAL117 flight status page for this flight to view local times or setup timezone preferences in your user account.

Time Position Orientation Groundspeed Altitude Reporting Facility
EDT Latitude Longitude Course Direction KTS MPH feet Rate Location/Type
01:47PM 40.6333 -73.8667 237° Southwest 191 220 2,200  Level New York TRACON
01:48PM 40.5833 -73.9167 217° Southwest 264 304 4,300 2,700 Climbing New York TRACON
01:49PM 40.4263 -74.1141 237° Southwest  Level FlightAware Approximate
01:49PM 40.5167 -73.9667 210° Southwest 272 313 7,600  Level New York TRACON
01:50PM 40.3516 -74.2253 232° Southwest  Level FlightAware Approximate
01:50PM 40.4500 -74.0167 210° Southwest 292 336 10,300  Level New York TRACON
01:51PM 40.2815 -74.3420 232° Southwest  Level FlightAware Approximate
01:52PM 40.2195 -74.4610 237° Southwest  Level FlightAware Approximate
01:52PM 40.3278 -74.1494 220° Southwest 357 411 12,500  Level New York Center
01:53PM 40.2931 -74.2675 249° West 372 428 14,800 2,460 Climbing New York Center
01:54PM 40.2739 -74.4217 261° West 377 434 17,400 2,100 Climbing New York Center
01:55PM 40.2572 -74.5514 260° West 404 465 19,100 1,800 Climbing New York Center
01:56PM 40.2442 -74.7003 263° West 409 471 21,100 1,920 Climbing New York Center
01:57PM 40.2264 -74.8542 261° West 425 489 23,000 1,740 Climbing New York Center
01:58PM 40.2083 -75.0108 261° West 430 495 24,700 1,560 Climbing New York Center
01:59PM 40.1900 -75.1700 261° West 441 507 26,100 1,320 Climbing New York Center
02:00PM 40.1711 -75.3344 262° West 451 519 27,400 1,320 Climbing New York Center
02:01PM 40.1519 -75.5017 262° West 465 535 28,800 780 Climbing New York Center
02:02PM 40.1328 -75.6686 262° West 470 541 29,000 300 Climbing New York Center
02:03PM 40.1131 -75.8383 261° West 475 547 29,500 960 Climbing New York Center
02:04PM 40.0933 -76.0025 261° West 475 547 31,000 840 Climbing New York Center
02:05PM 40.0714 -76.1661 260° West 463 533 31,300 840 Climbing New York Center
02:06PM 40.0469 -76.3325 259° West 463 533 32,700 1,440 Climbing New York Center
02:07PM 40.0203 -76.4986 258° West 463 533 34,200 1,560 Climbing New York Center
02:08PM 39.9528 -76.6447 239° Southwest 463 533 35,800 1,380 Climbing New York Center
02:09PM 39.8403 -76.8722 237° Southwest 497 572 37,900 840 Climbing Washington Center
02:10PM 39.7719 -77.0142 238° Southwest 484 557 38,000  Climbing Washington Center
02:11PM 39.7056 -77.1614 240° Southwest 474 545 38,000  Level Washington Center
02:12PM 39.6389 -77.3081 239° Southwest 474 545 38,000  Level Washington Center
02:13PM 39.5722 -77.4519 239° Southwest 474 545 38,000  Level Washington Center
02:14PM 39.5053 -77.5953 239° Southwest 469 540 38,000  Level Washington Center
02:15PM 39.4342 -77.7411 238° Southwest 469 540 38,000  Level Washington Center
02:16PM 39.3711 -77.8842 240° Southwest 469 540 38,000  Level Washington Center
02:17PM 39.3117 -78.0353 243° Southwest 463 533 38,000  Level Washington Center
02:18PM 39.2525 -78.1833 243° Southwest 463 533 38,000  Level Washington Center
02:19PM 39.2011 -78.3317 246° West 463 533 38,000  Level Washington Center
02:20PM 39.1642 -78.4881 253° West 463 533 38,000  Level Washington Center
02:21PM 39.1314 -78.6367 254° West 453 521 38,000  Level Washington Center
02:22PM 39.0939 -78.7875 252° West 442 509 38,000  Level Washington Center
02:23PM 39.0608 -78.9358 254° West 442 509 38,000  Level Washington Center
02:24PM 39.0275 -79.0842 254° West 437 503 38,000  Level Washington Center
02:25PM 38.9917 -79.2319 253° West 437 503 38,000  Level Washington Center
02:26PM 38.9558 -79.3797 253° West 437 503 38,000  Level Washington Center
02:27PM 38.9200 -79.5272 253° West 437 503 38,000  Level Washington Center
02:28PM 38.8786 -79.6983 253° West 445 512 38,000  Level Washington Center
02:30PM 38.8083 -79.9731 252° West 439 505 38,000  Level Indianapolis Center
02:31PM 38.7719 -80.1231 253° West 440 506 38,000  Level Indianapolis Center
02:32PM 38.7344 -80.2731 252° West 441 507 38,000  Level Indianapolis Center
02:33PM 38.6894 -80.4525 252° West 441 507 38,000  Level Indianapolis Center
02:34PM 38.6531 -80.6008 253° West 438 504 38,000  Level Indianapolis Center
02:35PM 38.6156 -80.7511 252° West 442 509 38,000  Level Indianapolis Center
02:36PM 38.5775 -80.9014 252° West 442 509 38,000  Level Indianapolis Center
02:37PM 38.5394 -81.0517 252° West 443 510 38,000  Level Indianapolis Center
02:38PM 38.4997 -81.2022 251° West 444 511 38,000  Level Indianapolis Center
02:39PM 38.4600 -81.3542 252° West 446 513 38,000  Level Indianapolis Center
02:40PM 38.4211 -81.5069 252° West 447 514 38,000  Level Indianapolis Center
02:41PM 38.3822 -81.6592 252° West 445 512 38,000  Level Indianapolis Center
02:42PM 38.3419 -81.8086 251° West 444 511 38,000  Level Indianapolis Center
02:43PM 38.2922 -81.9844 250° West 439 505 38,000  Level Indianapolis Center
02:45PM 38.2508 -82.1331 251° West 442 509 38,000  Level Indianapolis Center
02:46PM 38.2094 -82.2814 250° West 444 511 38,000  Level Indianapolis Center
02:47PM 38.1658 -82.4292 249° West 446 513 38,000  Level Indianapolis Center
02:48PM 38.1264 -82.5686 250° West 443 510 38,000  Level Indianapolis Center
02:49PM 38.0767 -82.7400 250° West 443 510 38,000  Level Indianapolis Center
02:50PM 38.0344 -82.8864 250° West 441 507 38,000  Level Indianapolis Center
02:51PM 37.9917 -83.0333 250° West 444 511 38,000  Level Indianapolis Center
02:52PM 37.9475 -83.1789 249° West 443 510 38,000  Level Indianapolis Center
02:53PM 37.9047 -83.3247 250° West 442 509 38,000  Level Indianapolis Center
02:54PM 37.8539 -83.4936 249° West 439 505 38,000  Level Indianapolis Center
02:55PM 37.8117 -83.6356 249° West 435 501 38,000  Level Indianapolis Center
02:56PM 37.7686 -83.7781 249° West 435 501 38,000  Level Indianapolis Center
02:57PM 37.7253 -83.9186 249° West 432 497 38,000  Level Indianapolis Center
02:58PM 37.6822 -84.0606 249° West 433 498 38,000  Level Indianapolis Center
02:59PM 37.6397 -84.2025 249° West 431 496 38,000  Level Indianapolis Center
03:00PM 37.5908 -84.3639 249° West 426 490 38,000  Level Indianapolis Center
03:01PM 37.5483 -84.5053 249° West 429 494 38,000  Level Indianapolis Center
03:02PM 37.5044 -84.6458 249° West 432 497 38,000  Level Indianapolis Center
03:03PM 37.4608 -84.7903 249° West 427 491 38,000  Level Indianapolis Center
03:04PM 37.4178 -84.9253 248° West 430 495 38,000  Level Indianapolis Center
03:05PM 37.3736 -85.0653 248° West 431 496 38,000  Level Indianapolis Center
03:06PM 37.3225 -85.2281 248° West 432 497 38,000  Level Indianapolis Center
03:07PM 37.2789 -85.3681 249° West 431 496 38,000  Level Indianapolis Center
03:08PM 37.2317 -85.5175 248° West 433 498 38,000  Level Indianapolis Center
03:09PM 37.1908 -85.6464 248° West 434 499 38,000  Level Indianapolis Center
03:10PM 37.1447 -85.7872 248° West 433 498 38,000  Level Indianapolis Center
03:11PM 37.0908 -85.9531 248° West 436 502 38,000  Level Indianapolis Center
03:12PM 37.0458 -86.0939 248° West 434 499 38,000  Level Indianapolis Center
03:13PM 37.0008 -86.2342 248° West 433 498 38,000  Level Indianapolis Center
03:14PM 36.9547 -86.3761 248° West 437 503 38,000  Level Indianapolis Center
03:15PM 36.9189 -86.5197 253° West 434 499 38,000  Level Indianapolis Center
03:16PM 36.8947 -86.6672 258° West 432 497 38,000  Level Indianapolis Center
03:17PM 36.8711 -86.8247 259° West 428 493 38,000  Level Memphis Center
03:18PM 36.8461 -86.9736 258° West 434 499 38,000  Level Memphis Center
03:19PM 36.8208 -87.1172 258° West 434 499 38,000  Level Memphis Center
03:20PM 36.7975 -87.2683 259° West 434 499 38,000  Level Memphis Center
03:21PM 36.7719 -87.4169 258° West 434 499 38,000  Level Memphis Center
03:22PM 36.7461 -87.5631 258° West 434 499 38,000  Level Memphis Center
03:23PM 36.7203 -87.7114 258° West 434 499 38,000  Level Memphis Center
03:24PM 36.6942 -87.8597 258° West 434 499 38,000  Level Memphis Center
03:25PM 36.6678 -88.0081 258° West 434 499 38,000  Level Memphis Center
03:26PM 36.6456 -88.1508 259° West 433 498 38,000  Level Memphis Center
03:27PM 36.6189 -88.2992 257° West 433 498 38,000  Level Memphis Center
03:28PM 36.5919 -88.4444 257° West 433 498 38,000  Level Memphis Center
03:29PM 36.5650 -88.5897 257° West 433 498 38,000  Level Memphis Center
03:30PM 36.5378 -88.7375 257° West 433 498 38,000  Level Memphis Center
03:31PM 36.5106 -88.8853 257° West 433 498 38,000  Level Memphis Center
03:32PM 36.4828 -89.0303 257° West 433 498 38,000  Level Memphis Center
03:33PM 36.4553 -89.1831 257° West 433 498 38,000  Level Memphis Center
03:34PM 36.4275 -89.3331 257° West 446 513 38,000  Level Memphis Center
03:35PM 36.3994 -89.4803 257° West 473 544 38,000  Level Memphis Center
03:36PM 36.3711 -89.6275 257° West 471 542 38,000  Level Memphis Center
03:37PM 36.3428 -89.7719 256° West 457 526 38,000  Level Memphis Center
03:38PM 36.3142 -89.9217 257° West 450 518 38,000  Level Memphis Center
03:39PM 36.2856 -90.0711 257° West 450 518 38,000  Level Memphis Center
03:40PM 36.2544 -90.2206 256° West 450 518 38,000  Level Memphis Center
03:41PM 36.2275 -90.3697 257° West 450 518 38,000  Level Memphis Center
03:42PM 36.1961 -90.5319 257° West 450 518 38,000  Level Memphis Center
03:43PM 36.1644 -90.6783 255° West 450 518 38,000  Level Memphis Center
03:44PM 36.1369 -90.8300 257° West 450 518 38,000  Level Memphis Center
03:45PM 36.1092 -90.9761 257° West 450 518 38,000  Level Memphis Center
03:46PM 36.1125 -91.1303 272° West 450 518 38,000  Level Memphis Center
03:47PM 36.1178 -91.2794 273° West 442 509 38,000  Level Memphis Center
03:48PM 36.1228 -91.4311 272° West 442 509 38,000  Level Memphis Center
03:49PM 36.1319 -91.5778 274° West 442 509 38,000  Level Memphis Center
03:50PM 36.1344 -91.7294 271° West 442 509 38,000  Level Memphis Center
03:51PM 36.1369 -91.8808 271° West 442 509 38,000  Level Memphis Center
03:52PM 36.1411 -92.0328 272° West 442 509 38,000  Level Memphis Center
03:53PM 36.1517 -92.1819 275° West 442 509 38,000  Level Memphis Center
03:54PM 36.1556 -92.3364 272° West 442 509 38,000  Level Memphis Center
03:55PM 36.1572 -92.4881 271° West 448 516 38,000  Level Memphis Center
03:56PM 36.1628 -92.6425 273° West 448 516 38,000  Level Memphis Center
03:57PM 36.1661 -92.7967 272° West 448 516 38,000  Level Memphis Center
03:58PM 36.1628 -92.9611 269° West 461 531 38,000  Level Memphis Center
03:59PM 36.1450 -93.1122 262° West 461 531 38,000  Level Memphis Center
04:00PM 36.1247 -93.2633 261° West 461 531 38,000  Level Memphis Center
04:01PM 36.1044 -93.4167 261° West 461 531 38,000  Level Memphis Center
04:02PM 36.0886 -93.5522 262° West 461 531 38,000  Level Memphis Center
04:03PM 36.0742 -93.7031 263° West 456 525 38,000  Level Memphis Center
04:04PM 36.0597 -93.8514 263° West 451 519 38,000  Level Memphis Center
04:05PM 36.0514 -94.0000 266° West 444 511 38,000  Level Memphis Center
04:06PM 36.0486 -94.1564 269° West 439 505 38,000  Level Memphis Center
04:09PM 36.0467 -94.5147 270° West 428 493 38,000  Level Kansas City Center
04:10PM 36.0464 -94.6611 270° West 426 490 38,000  Level Kansas City Center
04:11PM 36.0436 -94.8100 269° West 430 495 38,000  Level Kansas City Center
04:12PM 36.0433 -94.9592 270° West 431 496 38,000  Level Kansas City Center
04:13PM 36.0414 -95.1083 269° West 432 497 38,000  Level Kansas City Center
04:14PM 36.0392 -95.2592 269° West 432 497 38,000  Level Kansas City Center
04:15PM 36.0367 -95.4122 269° West 440 506 38,000  Level Kansas City Center
04:16PM 36.0333 -95.5653 269° West 441 507 38,000  Level Kansas City Center
04:17PM 36.0300 -95.7197 269° West 445 512 38,000  Level Kansas City Center
04:18PM 36.0261 -95.8753 268° West 449 517 38,000  Level Kansas City Center
04:19PM 36.0214 -96.0297 268° West 449 517 38,000  Level Kansas City Center
04:20PM 36.0172 -96.1839 268° West 449 517 38,000  Level Kansas City Center
04:21PM 36.0094 -96.3694 267° West 450 518 38,000  Level Kansas City Center
04:22PM 36.0047 -96.4997 267° West 449 517 38,000  Level Kansas City Center
04:23PM 35.9983 -96.6886 268° West 458 527 38,000  Level Kansas City Center
04:24PM 35.9931 -96.8447 268° West 459 528 38,000  Level Kansas City Center
04:25PM 35.9881 -97.0017 268° West 460 529 38,000  Level Kansas City Center
04:26PM 35.9819 -97.1592 267° West 463 533 38,000  Level Kansas City Center
04:27PM 35.9761 -97.3156 267° West 461 531 38,000  Level Kansas City Center
04:28PM 35.9714 -97.4722 268° West 461 531 38,000  Level Kansas City Center
04:29PM 35.9656 -97.6258 267° West 456 525 38,000  Level Kansas City Center
04:30PM 35.9586 -97.8108 267° West 454 522 38,000  Level Kansas City Center
04:31PM 35.9531 -97.9647 267° West 454 522 38,000  Level Kansas City Center
04:32PM 35.9461 -98.1192 267° West 450 518 38,000  Level Kansas City Center
04:33PM 35.9411 -98.2722 268° West 447 514 38,000  Level Kansas City Center
04:34PM 35.9350 -98.4228 267° West 442 509 38,000  Level Kansas City Center
04:36PM 35.9275 -98.5739 267° West 440 506 38,000  Level Kansas City Center
04:37PM 35.9206 -98.7169 267° West 437 503 38,000  Level Kansas City Center
04:38PM 35.9131 -98.8936 267° West 434 499 38,000  Level Kansas City Center
04:39PM 35.9044 -99.0425 266° West 436 502 38,000  Level Kansas City Center
04:40PM 35.8981 -99.1908 267° West 436 502 38,000  Level Kansas City Center
04:41PM 35.8889 -99.3400 266° West 436 502 38,000  Level Kansas City Center
04:42PM 35.8831 -99.4786 267° West 433 498 38,000  Level Kansas City Center
04:43PM 35.8756 -99.6275 266° West 433 498 38,000  Level Kansas City Center
04:44PM 35.8656 -99.8042 266° West 430 495 38,000  Level Kansas City Center
04:44PM 35.8614 -99.8917 267° West 429 494 38,000  Level Albuquerque Center
04:45PM 35.8528 -100.0389 266° West 430 495 38,000  Level Albuquerque Center
04:46PM 35.8425 -100.1856 265° West 428 493 38,000  Level Albuquerque Center
04:47PM 35.8322 -100.3314 265° West 428 493 38,000  Level Albuquerque Center
04:48PM 35.8244 -100.4783 266° West 428 493 38,000  Level Albuquerque Center
04:49PM 35.8139 -100.6244 265° West 428 493 38,000  Level Albuquerque Center
04:50PM 35.8061 -100.7708 266° West 427 491 38,000  Level Albuquerque Center
04:51PM 35.7961 -100.9172 265° West 428 493 38,000  Level Albuquerque Center
04:53PM 35.7856 -101.0753 265° West 428 493 38,000  Level Albuquerque Center
04:54PM 35.7758 -101.2211 265° West 429 494 38,000  Level Albuquerque Center
04:55PM 35.7658 -101.3661 265° West 429 494 38,000  Level Albuquerque Center
04:56PM 35.7550 -101.5403 266° West 429 494 38,000  Level Albuquerque Center
04:57PM 35.7442 -101.6867 265° West 432 497 38,000  Level Albuquerque Center
04:58PM 35.7325 -101.8297 264° West 428 493 38,000  Level Albuquerque Center
04:59PM 35.7206 -101.9731 264° West 425 489 38,000  Level Albuquerque Center
05:00PM 35.7097 -102.1167 265° West 426 490 38,000  Level Albuquerque Center
05:01PM 35.6981 -102.2614 264° West 427 491 38,000  Level Albuquerque Center
05:02PM 35.6864 -102.4067 264° West 430 495 38,000  Level Albuquerque Center
05:03PM 35.6719 -102.5811 264° West 429 494 38,000  Level Albuquerque Center
05:04PM 35.6594 -102.7267 264° West 430 495 38,000  Level Albuquerque Center
05:05PM 35.6478 -102.8728 264° West 430 495 38,000  Level Albuquerque Center
05:06PM 35.6350 -103.0294 264° West 429 494 38,000  Level Albuquerque Center
05:07PM 35.6219 -103.1758 264° West 429 494 38,000  Level Albuquerque Center
05:08PM 35.6106 -103.3214 265° West 427 491 38,000  Level Albuquerque Center
05:09PM 35.5986 -103.4667 264° West 425 489 38,000  Level Albuquerque Center
05:10PM 35.5872 -103.6111 265° West 422 486 38,000  Level Albuquerque Center
05:11PM 35.5750 -103.7556 264° West 422 486 38,000  Level Albuquerque Center
05:12PM 35.5617 -103.8975 263° West 420 483 38,000  Level Albuquerque Center
05:13PM 35.5486 -104.0411 264° West 422 486 38,000  Level Albuquerque Center
05:14PM 35.5361 -104.1836 264° West 421 484 38,000  Level Albuquerque Center
05:15PM 35.5192 -104.3494 263° West 422 486 38,000  Level Albuquerque Center
05:16PM 35.5053 -104.4917 263° West 421 484 38,000  Level Albuquerque Center
05:17PM 35.4911 -104.6314 263° West 415 478 38,000  Level Albuquerque Center
05:18PM 35.4772 -104.7728 263° West 415 478 38,000  Level Albuquerque Center
05:19PM 35.4631 -104.9164 263° West 420 483 38,000  Level Albuquerque Center
05:20PM 35.4489 -105.0594 263° West 421 484 38,000  Level Albuquerque Center
05:21PM 35.4336 -105.2017 263° West 419 482 38,000  Level Albuquerque Center
05:22PM 35.4197 -105.3453 263° West 421 484 38,000  Level Albuquerque Center
05:23PM 35.4072 -105.4867 264° West 417 480 38,000  Level Albuquerque Center
05:24PM 35.3919 -105.6303 263° West 420 483 38,000  Level Albuquerque Center
05:25PM 35.3733 -105.7942 262° West 415 478 38,000  Level Albuquerque Center
05:26PM 35.3575 -105.9372 262° West 419 482 38,000  Level Albuquerque Center
05:27PM 35.3436 -106.0783 263° West 416 479 38,000  Level Albuquerque Center
05:28PM 35.3281 -106.2189 262° West 416 479 38,000  Level Albuquerque Center
05:29PM 35.3139 -106.3592 263° West 416 479 38,000  Level Albuquerque Center
05:30PM 35.2986 -106.4983 262° West 415 478 38,000  Level Albuquerque Center
05:31PM 35.2847 -106.6461 263° West 412 474 38,000  Level Albuquerque Center
05:32PM 35.2681 -106.7817 261° West 416 479 38,000  Level Albuquerque Center
05:33PM 35.2478 -106.9394 261° West 420 483 38,000  Level Albuquerque Center
05:34PM 35.2311 -107.0750 261° West 421 484 38,000  Level Albuquerque Center
05:36PM 35.2133 -107.2253 262° West 428 493 38,000  Level Albuquerque Center
05:37PM 35.1956 -107.3656 261° West 424 488 38,000  Level Albuquerque Center
05:38PM 35.1783 -107.5044 261° West 418 481 38,000  Level Albuquerque Center
05:39PM 35.1600 -107.6614 262° West 414 476 38,000  Level Albuquerque Center
05:41PM 35.1264 -107.9278 261° West 414 476 38,000  Level Albuquerque Center
05:42PM 35.1086 -108.0808 262° West 409 471 38,000  Level Albuquerque Center
05:43PM 35.0922 -108.2139 261° West 410 472 38,000  Level Albuquerque Center
05:44PM 35.0750 -108.3467 261° West 411 473 38,000  Level Albuquerque Center
05:45PM 35.0556 -108.5006 261° West 410 472 38,000  Level Albuquerque Center
05:46PM 35.0386 -108.6331 261° West 411 473 38,000  Level Albuquerque Center
05:47PM 35.0175 -108.7875 261° West 411 473 38,000  Level Albuquerque Center
05:48PM 35.0006 -108.9208 261° West 414 476 38,000  Level Albuquerque Center
05:49PM 34.9825 -109.0536 261° West 414 476 38,000  Level Albuquerque Center
05:50PM 34.9647 -109.2086 262° West 412 474 38,000  Level Albuquerque Center
05:51PM 34.9564 -109.3456 266° West 417 480 38,000  Level Albuquerque Center
05:52PM 34.9450 -109.5042 265° West 419 482 38,000  Level Albuquerque Center
05:53PM 34.9356 -109.6394 265° West 416 479 38,000  Level Albuquerque Center
05:54PM 34.9258 -109.7747 265° West 418 481 38,000  Level Albuquerque Center
05:55PM 34.9153 -109.9328 265° West 418 481 38,000  Level Albuquerque Center
05:56PM 34.9044 -110.0681 264° West 418 481 38,000  Level Albuquerque Center
05:57PM 34.8950 -110.2294 266° West 426 490 38,000  Level Albuquerque Center
05:58PM 34.8864 -110.3592 265° West 413 475 38,000  Level Albuquerque Center
05:59PM 34.8603 -110.4814 255° West 400 460 38,000  Level Albuquerque Center
06:00PM 34.7975 -110.6100 239° Southwest 397 457 38,000  Level Albuquerque Center
06:01PM 34.7367 -110.7153 235° Southwest 397 457 38,000  Level Albuquerque Center
06:02PM 34.6864 -110.8319 242° Southwest 403 464 38,000  Level Albuquerque Center
06:03PM 34.6753 -110.9667 264° West 399 459 38,000  Level Albuquerque Center
06:04PM 34.6631 -111.1006 264° West 399 459 38,000  Level Albuquerque Center
06:05PM 34.6494 -111.2375 263° West 406 467 38,000  Level Albuquerque Center
06:06PM 34.6325 -111.4022 263° West 411 473 38,000  Level Albuquerque Center
06:07PM 34.6181 -111.5408 263° West 415 478 38,000  Level Albuquerque Center
06:08PM 34.6036 -111.6789 263° West 416 479 38,000  Level Albuquerque Center
06:09PM 34.5892 -111.8161 263° West 414 476 38,000  Level Albuquerque Center
06:10PM 34.5747 -111.9511 263° West 410 472 38,000  Level Albuquerque Center
06:11PM 34.5606 -112.0839 263° West 404 465 38,000  Level Albuquerque Center
06:12PM 34.5467 -112.2156 263° West 400 460 38,000  Level Albuquerque Center
06:13PM 34.5311 -112.3564 262° West 395 455 38,000  Level Albuquerque Center
06:14PM 34.5161 -112.4861 262° West 392 451 38,000  Level Albuquerque Center
06:15PM 34.5019 -112.6169 263° West 392 451 38,000  Level Albuquerque Center
06:16PM 34.4844 -112.7736 262° West 393 452 38,000  Level Albuquerque Center
06:17PM 34.4697 -112.9061 262° West 396 456 38,000  Level Albuquerque Center
06:18PM 34.4550 -113.0392 262° West 399 459 38,000  Level Albuquerque Center
06:19PM 34.4394 -113.1714 262° West 399 459 38,000  Level Albuquerque Center
06:21PM 34.4242 -113.2908 261° West 397 457 38,000  Level Albuquerque Center
06:22PM 34.4069 -113.4503 263° West 398 458 38,000  Level Albuquerque Center
06:23PM 34.3892 -113.5836 261° West 402 463 38,000  Level Albuquerque Center
06:24PM 34.3714 -113.7264 261° West 403 464 38,000  Level Albuquerque Center
06:25PM 34.3564 -113.8606 262° West 403 464 38,000  Level Albuquerque Center
06:26PM 34.3428 -113.9928 263° West 398 458 38,000  Level Albuquerque Center
06:27PM 34.3292 -114.1278 263° West 401 461 38,000 -180 Level Albuquerque Center
06:28PM 34.3147 -114.2597 262° West 399 459 37,700 -960 Descending Albuquerque Center
06:29PM 34.3019 -114.3906 263° West 395 455 36,100 -1,500 Descending Albuquerque Center
06:30PM 34.2872 -114.5233 262° West 394 453 34,700 -1,320 Descending Albuquerque Center
06:31PM 34.2669 -114.6922 262° West 405 466 33,200 -1,140 Descending Los Angeles Center
06:32PM 34.2519 -114.8244 262° West 400 460 32,200 -1,020 Descending Los Angeles Center
06:33PM 34.2369 -114.9553 262° West 395 455 31,100 -1,140 Descending Los Angeles Center
06:34PM 34.2175 -115.1083 261° West 388 447 29,900 -1,020 Descending Los Angeles Center
06:35PM 34.2025 -115.2336 262° West 380 437 29,100 -840 Descending Los Angeles Center
06:36PM 34.1861 -115.3561 261° West 374 430 28,200 -960 Descending Los Angeles Center
06:37PM 34.1714 -115.4772 262° West 369 425 27,200 -1,020 Descending Los Angeles Center
06:38PM 34.1542 -115.5964 260° West 365 420 26,200 -1,140 Descending Los Angeles Center
06:39PM 34.1378 -115.7167 261° West 363 418 24,900 -1,080 Descending Los Angeles Center
06:40PM 34.1194 -115.8667 262° West 373 429 24,000 -480 Descending Los Angeles Center
06:41PM 34.1022 -115.9919 261° West 379 436 24,000  Level Los Angeles Center
06:42PM 34.0856 -116.1367 262° West 420 483 24,000 -180 Level Los Angeles Center
06:43PM 34.0667 -116.2775 261° West 429 494 23,700 -960 Descending Los Angeles Center
06:44PM 34.0475 -116.4156 261° West 423 487 22,100 -1,500 Descending Los Angeles Center
06:45PM 34.0294 -116.5536 261° West 421 484 20,600 -1,620 Descending Los Angeles Center
06:46PM 34.0081 -116.7158 261° West 412 474 18,900 -1,620 Descending Los Angeles Center
06:47PM 33.9908 -116.8458 261° West 399 459 17,300 -960 Descending Los Angeles Center
06:48PM 33.9667 -116.9667 256° West 372 428 17,000 -180 Descending Southern California TRACON
06:49PM 33.9500 -117.0833 260° West 374 430 17,000 -300 Level Southern California TRACON
06:50PM 33.9500 -117.2167 270° West 371 427 16,400 -1,140 Descending Southern California TRACON
06:51PM 33.9333 -117.3333 260° West 372 428 14,800 -1,680 Descending Southern California TRACON
06:52PM 33.9667 -117.4500 289° West 364 419 13,100 -1,500 Descending Southern California TRACON
06:53PM 34.0000 -117.5667 289° West 338 389 11,900 -1,260 Descending Southern California TRACON
06:54PM 34.0167 -117.6667 281° West 300 345 10,600 -1,440 Descending Southern California TRACON
06:55PM 34.0000 -117.7500 256° West 274 315 9,100 -1,380 Descending Southern California TRACON
06:57PM 33.9833 -117.8500 259° West 275 316 7,800 -1,200 Descending Southern California TRACON
06:58PM 33.9833 -117.9500 270° West 275 316 6,700 -1,080 Descending Southern California TRACON
06:59PM 33.9667 -118.0333 256° West 260 299 5,700 -1,200 Descending Southern California TRACON
07:00PM 33.9667 -118.1167 270° West 241 277 4,400 -1,320 Descending Southern California TRACON